createdAt,value
2023-01-29T00:01:59.469Z,17.20
2023-01-29T00:04:26.292Z,19.15
2023-01-29T00:06:53.086Z,22.92
2023-01-29T00:09:19.884Z,18.38
2023-01-29T00:11:47.017Z,16.88
2023-01-29T00:14:14.608Z,16.95
2023-01-29T00:16:41.380Z,16.58
2023-01-29T00:19:08.115Z,19.85
2023-01-29T00:21:35.017Z,19.15
2023-01-29T00:24:01.752Z,13.88
2023-01-29T00:26:28.706Z,16.02
2023-01-29T00:28:57.298Z,19.35
2023-01-29T00:31:25.933Z,20.75
2023-01-29T00:33:52.767Z,15.32
2023-01-29T00:36:20.308Z,19.00
2023-01-29T00:38:54.650Z,18.25
2023-01-29T00:41:40.029Z,21.30
2023-01-29T00:44:25.595Z,19.92
2023-01-29T00:46:52.382Z,20.73
2023-01-29T00:49:19.777Z,17.50
2023-01-29T00:52:06.465Z,19.80
2023-01-29T00:54:33.300Z,18.92
2023-01-29T00:57:00.370Z,20.70
2023-01-29T00:59:27.144Z,20.70
2023-01-29T01:02:12.423Z,20.90
2023-01-29T01:04:39.154Z,22.90
2023-01-29T01:07:06.302Z,21.95
2023-01-29T01:09:54.123Z,18.23
2023-01-29T01:12:21.447Z,19.38
2023-01-29T01:14:48.345Z,23.77
2023-01-29T01:17:15.666Z,22.33
2023-01-29T01:19:42.542Z,18.95
2023-01-29T01:22:09.252Z,22.58
2023-01-29T01:24:36.462Z,19.90
2023-01-29T01:27:03.316Z,19.63
2023-01-29T01:29:30.044Z,22.15
2023-01-29T01:31:56.756Z,20.50
2023-01-29T01:34:23.983Z,20.77
2023-01-29T01:36:50.682Z,23.10
2023-01-29T01:39:17.365Z,22.15
2023-01-29T01:41:44.060Z,23.45
2023-01-29T01:44:48.618Z,25.00
2023-01-29T01:47:15.635Z,27.25
2023-01-29T01:49:42.858Z,22.88
2023-01-29T01:52:09.619Z,21.55
2023-01-29T01:54:36.293Z,21.50
2023-01-29T01:57:09.685Z,24.70
2023-01-29T01:59:37.066Z,21.75
2023-01-29T02:02:22.147Z,20.73
2023-01-29T02:05:07.256Z,25.00
2023-01-29T02:07:52.386Z,22.67
2023-01-29T02:10:19.194Z,20.30
2023-01-29T02:12:45.911Z,29.02
2023-01-29T02:15:12.769Z,22.85
2023-01-29T02:17:39.616Z,21.33
2023-01-29T02:20:19.074Z,28.55
2023-01-29T02:22:59.282Z,21.55
2023-01-29T02:25:44.929Z,20.60
2023-01-29T02:28:21.618Z,20.23
2023-01-29T02:31:01.904Z,25.45
2023-01-29T02:33:39.922Z,18.27
2023-01-29T02:36:37.724Z,28.17
2023-01-29T02:39:40.107Z,21.15
2023-01-29T02:42:28.380Z,23.50
2023-01-29T02:45:07.117Z,18.48
2023-01-29T02:47:55.977Z,26.88
2023-01-29T02:50:39.536Z,20.50
2023-01-29T02:53:11.056Z,24.83
2023-01-29T02:55:59.180Z,25.95
2023-01-29T02:58:43.352Z,21.88
2023-01-29T03:01:13.612Z,27.35
2023-01-29T03:03:45.855Z,24.88
2023-01-29T03:06:20.117Z,28.27
2023-01-29T03:09:04.359Z,26.52
2023-01-29T03:11:42.192Z,22.63
2023-01-29T03:14:18.017Z,22.80
2023-01-29T03:16:53.382Z,22.83
2023-01-29T03:19:25.969Z,27.42
2023-01-29T03:22:01.568Z,25.70
2023-01-29T03:25:02.823Z,25.00
2023-01-29T03:28:02.552Z,19.80
2023-01-29T03:30:48.309Z,22.40
2023-01-29T03:33:15.356Z,24.95
2023-01-29T03:35:48.607Z,22.35
2023-01-29T03:38:15.943Z,32.60
2023-01-29T03:40:54.705Z,27.77
2023-01-29T03:43:40.105Z,24.45
2023-01-29T03:46:29.249Z,25.75
2023-01-29T03:48:58.295Z,27.02
2023-01-29T03:51:34.418Z,26.15
2023-01-29T03:54:21.434Z,21.25
2023-01-29T03:56:57.921Z,25.52
2023-01-29T03:59:36.107Z,31.35
2023-01-29T04:02:05.316Z,23.38
2023-01-29T04:04:36.929Z,25.15
2023-01-29T04:07:14.135Z,25.52
2023-01-29T04:09:50.009Z,27.80
2023-01-29T04:12:20.632Z,22.40
2023-01-29T04:14:47.648Z,27.83
2023-01-29T04:17:16.806Z,23.00
2023-01-29T04:19:43.816Z,25.38
2023-01-29T04:22:14.125Z,28.50
2023-01-29T04:24:41.330Z,25.92
2023-01-29T04:27:40.203Z,25.88
2023-01-29T04:30:23.019Z,27.00
2023-01-29T04:33:15.987Z,25.60
2023-01-29T04:35:53.356Z,25.85
2023-01-29T04:38:31.009Z,23.05
2023-01-29T04:41:05.372Z,28.08
2023-01-29T04:43:37.902Z,24.80
2023-01-29T04:46:51.464Z,26.75
2023-01-29T04:49:42.377Z,22.90
2023-01-29T04:52:12.037Z,27.45
2023-01-29T04:55:01.464Z,25.73
2023-01-29T04:57:34.593Z,26.73
2023-01-29T05:00:12.109Z,21.30
2023-01-29T05:02:39.751Z,21.77
2023-01-29T05:05:07.048Z,24.10
2023-01-29T05:07:34.020Z,30.70
2023-01-29T05:10:00.742Z,24.38
2023-01-29T05:12:28.071Z,23.73
2023-01-29T05:14:54.747Z,23.42
2023-01-29T05:17:21.470Z,27.98
2023-01-29T05:19:48.236Z,22.13
2023-01-29T05:22:16.792Z,21.85
2023-01-29T05:24:43.707Z,19.85
2023-01-29T05:27:35.393Z,24.77
2023-01-29T05:30:02.229Z,25.92
2023-01-29T05:32:28.921Z,25.15
2023-01-29T05:34:55.769Z,20.63
2023-01-29T05:37:22.485Z,25.25
2023-01-29T05:39:49.162Z,25.33
2023-01-29T05:42:15.858Z,28.10
2023-01-29T05:44:42.603Z,22.77
2023-01-29T05:47:09.374Z,28.13
2023-01-29T05:49:38.643Z,23.15
2023-01-29T05:52:05.536Z,21.23
2023-01-29T05:54:32.222Z,21.08
2023-01-29T05:56:58.893Z,24.90
2023-01-29T05:59:25.742Z,22.70
2023-01-29T06:01:52.440Z,22.45
2023-01-29T06:04:19.153Z,21.33
2023-01-29T06:06:45.853Z,26.25
2023-01-29T06:09:12.605Z,18.27
2023-01-29T06:11:39.593Z,23.65
2023-01-29T06:14:06.404Z,17.77
2023-01-29T06:16:33.136Z,19.55
2023-01-29T06:18:59.937Z,22.15
2023-01-29T06:21:26.635Z,23.63
2023-01-29T06:23:53.836Z,19.20
2023-01-29T06:26:20.630Z,17.77
2023-01-29T06:28:50.448Z,18.05
2023-01-29T06:31:36.867Z,17.13
2023-01-29T06:34:04.594Z,16.33
2023-01-29T06:36:31.353Z,13.13
2023-01-29T06:38:58.032Z,11.85
2023-01-29T06:41:25.724Z,14.88
2023-01-29T06:43:52.549Z,12.13
2023-01-29T06:46:19.267Z,13.90
2023-01-29T06:48:45.963Z,13.10
2023-01-29T06:51:12.731Z,12.82
2023-01-29T06:53:39.496Z,12.43
2023-01-29T06:56:06.767Z,12.18
2023-01-29T06:58:33.620Z,11.13
2023-01-29T07:01:07.752Z,14.50
2023-01-29T07:06:01.307Z,15.52
2023-01-29T07:08:28.603Z,12.05
2023-01-29T07:11:01.675Z,11.10
2023-01-29T07:13:28.512Z,12.32
2023-01-29T07:15:58.040Z,10.73
2023-01-29T07:18:24.806Z,11.70
2023-01-29T07:20:51.476Z,11.40
2023-01-29T07:23:18.426Z,11.38
2023-01-29T07:25:45.241Z,11.40
2023-01-29T07:28:12.552Z,12.77
2023-01-29T07:30:39.228Z,10.48
2023-01-29T07:33:07.565Z,11.85
2023-01-29T07:35:39.020Z,9.10
2023-01-29T07:38:06.625Z,8.40
2023-01-29T07:40:33.439Z,9.93
2023-01-29T07:43:01.100Z,14.30
2023-01-29T07:45:29.104Z,8.50
2023-01-29T07:47:56.065Z,12.23
2023-01-29T07:50:23.756Z,23.70
2023-01-29T07:52:50.653Z,13.68
2023-01-29T07:55:17.446Z,11.90
2023-01-29T07:57:44.228Z,11.68
2023-01-29T08:00:11.791Z,8.63
2023-01-29T08:02:38.709Z,9.95
2023-01-29T08:05:05.704Z,10.38
2023-01-29T08:07:32.427Z,8.95
2023-01-29T08:09:59.118Z,9.00
2023-01-29T08:12:25.869Z,11.68
2023-01-29T08:14:52.648Z,9.45
2023-01-29T08:17:19.337Z,9.43
2023-01-29T08:19:45.997Z,9.85
2023-01-29T08:22:12.781Z,10.55
2023-01-29T08:24:53.377Z,8.77
2023-01-29T08:27:26.285Z,10.77
2023-01-29T08:29:52.960Z,9.05
2023-01-29T08:32:19.614Z,17.67
2023-01-29T08:34:46.317Z,8.23
2023-01-29T08:37:13.221Z,9.95
2023-01-29T08:42:06.606Z,9.65
2023-01-29T08:44:33.392Z,10.30
2023-01-29T08:47:00.111Z,15.45
2023-01-29T08:49:26.947Z,8.93
2023-01-29T08:51:56.739Z,15.48
2023-01-29T08:54:23.927Z,10.55
2023-01-29T08:56:51.238Z,13.40
2023-01-29T08:59:19.152Z,12.55
2023-01-29T09:01:45.908Z,10.73
2023-01-29T09:04:12.653Z,14.13
2023-01-29T09:06:39.359Z,12.82
2023-01-29T09:09:06.057Z,10.80
2023-01-29T09:11:32.745Z,12.95
2023-01-29T09:13:59.407Z,12.77
2023-01-29T09:16:26.229Z,10.25
2023-01-29T09:18:53.446Z,13.48
2023-01-29T09:21:20.184Z,16.90
2023-01-29T09:23:46.914Z,12.85
2023-01-29T09:26:13.656Z,13.35
2023-01-29T09:28:40.333Z,16.27
2023-01-29T09:31:07.119Z,12.52
2023-01-29T09:33:34.399Z,15.65
2023-01-29T09:36:03.424Z,16.80
2023-01-29T09:38:30.628Z,16.08
2023-01-29T09:41:04.549Z,13.30
2023-01-29T09:43:34.244Z,13.10
2023-01-29T09:46:05.107Z,15.77
2023-01-29T09:48:32.756Z,13.55
2023-01-29T09:51:00.606Z,16.63
2023-01-29T09:53:39.765Z,13.25
2023-01-29T09:56:14.555Z,12.27
2023-01-29T09:58:42.185Z,18.77
2023-01-29T10:01:21.986Z,12.40
2023-01-29T10:04:14.402Z,13.40
2023-01-29T10:06:43.910Z,12.50
2023-01-29T10:09:32.502Z,13.05
2023-01-29T10:12:14.896Z,14.85
2023-01-29T10:15:03.350Z,15.70
2023-01-29T10:17:52.768Z,9.82
2023-01-29T10:20:40.645Z,12.50
2023-01-29T10:23:33.401Z,11.43
2023-01-29T10:26:01.268Z,10.73
2023-01-29T10:28:38.050Z,13.48
2023-01-29T10:31:11.851Z,11.02
2023-01-29T10:33:49.514Z,13.07
2023-01-29T10:36:38.744Z,13.35
2023-01-29T10:39:05.575Z,9.98
2023-01-29T10:42:10.002Z,12.60
2023-01-29T10:45:15.858Z,14.70
2023-01-29T10:47:57.415Z,13.70
2023-01-29T10:50:50.415Z,15.02
2023-01-29T10:53:35.549Z,13.27
2023-01-29T10:56:34.371Z,11.57
2023-01-29T10:59:53.398Z,20.20
2023-01-29T11:02:21.290Z,16.52
2023-01-29T11:04:48.269Z,13.32
2023-01-29T11:07:16.392Z,17.70
2023-01-29T11:10:04.039Z,16.25
2023-01-29T11:12:32.163Z,10.73
2023-01-29T11:15:19.027Z,11.85
2023-01-29T11:18:02.461Z,16.13
2023-01-29T11:20:29.714Z,13.45
2023-01-29T11:22:56.566Z,16.10
2023-01-29T11:25:23.416Z,11.30
2023-01-29T11:27:55.040Z,18.95
2023-01-29T11:30:31.694Z,13.93
2023-01-29T11:33:13.647Z,13.52
2023-01-29T11:35:40.317Z,12.20
2023-01-29T11:38:19.504Z,18.63
2023-01-29T11:40:46.214Z,12.15
2023-01-29T11:43:28.264Z,11.10
2023-01-29T11:46:00.390Z,14.32
2023-01-29T11:48:47.936Z,13.88
2023-01-29T11:51:28.194Z,10.02
2023-01-29T11:54:01.169Z,10.95
2023-01-29T11:56:40.733Z,9.65
2023-01-29T11:59:14.031Z,10.27
2023-01-29T12:01:40.789Z,10.52
2023-01-29T12:04:22.439Z,10.75
2023-01-29T12:06:52.075Z,11.70
2023-01-29T12:09:22.710Z,10.80
2023-01-29T12:11:49.499Z,12.32
2023-01-29T12:14:36.979Z,11.07
2023-01-29T12:17:15.884Z,13.27
2023-01-29T12:19:43.731Z,10.55
2023-01-29T12:22:23.991Z,9.10
2023-01-29T12:24:55.664Z,17.45
2023-01-29T12:27:38.673Z,10.07
2023-01-29T12:30:18.312Z,12.23
2023-01-29T12:33:07.010Z,10.52
2023-01-29T12:35:36.067Z,11.35
2023-01-29T12:38:10.634Z,12.27
2023-01-29T12:40:49.571Z,11.75
2023-01-29T12:43:32.794Z,8.55
2023-01-29T12:45:59.597Z,9.18
2023-01-29T12:48:32.950Z,8.35
2023-01-29T12:51:05.146Z,9.88
2023-01-29T12:53:45.037Z,6.88
2023-01-29T12:56:15.618Z,6.55
2023-01-29T12:58:45.491Z,7.10
2023-01-29T13:01:32.090Z,5.45
2023-01-29T13:04:16.676Z,8.63
2023-01-29T13:06:50.437Z,5.40
2023-01-29T13:09:35.335Z,6.43
2023-01-29T13:12:17.715Z,6.38
2023-01-29T13:14:56.558Z,7.93
2023-01-29T13:17:30.487Z,7.03
2023-01-29T13:19:58.536Z,5.18
2023-01-29T13:22:26.686Z,7.28
2023-01-29T13:25:04.097Z,4.93
2023-01-29T13:27:33.610Z,5.50
2023-01-29T13:30:00.316Z,5.82
2023-01-29T13:32:28.622Z,6.47
2023-01-29T13:34:57.276Z,6.57
2023-01-29T13:37:51.474Z,6.75
2023-01-29T13:40:24.732Z,5.63
2023-01-29T13:42:53.132Z,3.97
2023-01-29T13:45:26.794Z,3.83
2023-01-29T13:47:53.532Z,5.10
2023-01-29T13:50:21.599Z,7.30
2023-01-29T13:52:59.102Z,6.70
2023-01-29T13:55:34.037Z,4.22
2023-01-29T13:58:01.793Z,5.25
2023-01-29T14:00:34.513Z,3.65
2023-01-29T14:03:06.968Z,4.30
2023-01-29T14:05:41.139Z,3.78
2023-01-29T14:08:14.281Z,5.55
2023-01-29T14:10:41.952Z,3.33
2023-01-29T14:13:12.870Z,3.17
2023-01-29T14:15:41.261Z,3.05
2023-01-29T14:18:11.182Z,7.20
2023-01-29T14:20:47.669Z,3.10
2023-01-29T14:23:29.563Z,3.40
2023-01-29T14:25:56.563Z,2.30
2023-01-29T14:28:27.130Z,3.65
2023-01-29T14:30:55.125Z,2.85
2023-01-29T14:33:43.453Z,3.85
2023-01-29T14:36:12.725Z,2.63
2023-01-29T14:38:40.251Z,2.58
2023-01-29T14:41:33.443Z,3.15
2023-01-29T14:44:37.951Z,7.00
2023-01-29T14:47:05.606Z,3.78
2023-01-29T14:49:58.184Z,6.50
2023-01-29T14:52:41.729Z,11.60
2023-01-29T14:55:19.173Z,7.68
2023-01-29T14:57:46.124Z,4.65
2023-01-29T15:00:28.293Z,2.75
2023-01-29T15:03:01.929Z,2.45
2023-01-29T15:05:35.786Z,2.95
2023-01-29T15:08:23.894Z,4.30
2023-01-29T15:11:14.820Z,7.00
2023-01-29T15:14:24.001Z,4.30
2023-01-29T15:17:11.271Z,3.53
2023-01-29T15:19:45.940Z,3.55
2023-01-29T15:22:16.389Z,2.22
2023-01-29T15:24:43.788Z,7.82
2023-01-29T15:27:13.623Z,5.15
2023-01-29T15:29:40.725Z,4.53
2023-01-29T15:32:08.179Z,2.45
2023-01-29T15:34:35.024Z,6.05
2023-01-29T15:37:02.699Z,3.00
2023-01-29T15:39:32.189Z,4.10
2023-01-29T15:42:12.490Z,11.75
2023-01-29T15:44:45.082Z,2.85
2023-01-29T15:47:13.459Z,1.90
2023-01-29T15:49:40.801Z,3.15
2023-01-29T15:52:22.832Z,3.60
2023-01-29T15:54:49.673Z,5.28
2023-01-29T15:57:29.377Z,3.60
2023-01-29T15:59:57.805Z,3.70
2023-01-29T16:02:41.850Z,3.35
2023-01-29T16:05:17.688Z,2.40
2023-01-29T16:07:47.759Z,3.40
2023-01-29T16:10:24.972Z,2.25
2023-01-29T16:12:52.599Z,1.55
2023-01-29T16:15:53.587Z,3.42
2023-01-29T16:18:22.725Z,3.20
2023-01-29T16:20:53.895Z,3.28
2023-01-29T16:23:24.762Z,4.90
2023-01-29T16:25:51.469Z,3.65
2023-01-29T16:28:18.243Z,3.95
2023-01-29T16:30:45.023Z,4.22
2023-01-29T16:33:17.016Z,3.10
2023-01-29T16:35:43.701Z,4.60
2023-01-29T16:38:30.167Z,5.68
2023-01-29T16:41:15.351Z,4.35
2023-01-29T16:43:46.112Z,3.63
2023-01-29T16:46:39.814Z,3.88
2023-01-29T16:49:27.693Z,2.60
2023-01-29T16:51:56.796Z,2.80
2023-01-29T16:54:28.040Z,3.35
2023-01-29T16:56:59.730Z,2.58
2023-01-29T16:59:35.658Z,3.35
2023-01-29T17:02:02.383Z,4.70
2023-01-29T17:04:29.103Z,2.85
2023-01-29T17:06:57.947Z,2.78
2023-01-29T17:09:29.174Z,4.30
2023-01-29T17:12:01.636Z,3.20
2023-01-29T17:14:28.374Z,3.13
2023-01-29T17:17:06.398Z,5.03
2023-01-29T17:19:33.309Z,2.40
2023-01-29T17:22:00.114Z,3.38
2023-01-29T17:24:26.888Z,2.75
2023-01-29T17:26:54.555Z,2.47
2023-01-29T17:29:23.652Z,2.47
2023-01-29T17:31:50.423Z,3.92
2023-01-29T17:34:17.891Z,3.10
2023-01-29T17:36:44.759Z,3.47
2023-01-29T17:39:21.928Z,1.83
2023-01-29T17:41:52.303Z,3.15
2023-01-29T17:44:22.746Z,1.45
2023-01-29T17:46:49.564Z,2.53
2023-01-29T17:49:27.926Z,2.28
2023-01-29T17:51:55.631Z,2.28
2023-01-29T17:54:22.664Z,2.58
2023-01-29T17:56:51.649Z,3.45
2023-01-29T17:59:20.217Z,2.20
2023-01-29T18:01:47.588Z,2.40
2023-01-29T18:04:14.665Z,7.65
2023-01-29T18:06:41.896Z,1.83
2023-01-29T18:09:10.345Z,3.15
2023-01-29T18:11:37.113Z,2.70
2023-01-29T18:14:12.687Z,2.03
2023-01-29T18:16:42.345Z,2.17
2023-01-29T18:19:21.495Z,1.95
2023-01-29T18:21:49.160Z,1.90
2023-01-29T18:24:16.122Z,4.03
2023-01-29T18:26:43.008Z,2.08
2023-01-29T18:29:09.868Z,2.03
2023-01-29T18:31:36.858Z,1.20
2023-01-29T18:34:03.725Z,1.50
2023-01-29T18:36:30.462Z,1.58
2023-01-29T18:38:58.756Z,2.10
2023-01-29T18:41:25.744Z,2.92
2023-01-29T18:43:52.926Z,3.63
2023-01-29T18:46:19.963Z,2.03
2023-01-29T18:48:48.021Z,2.58
2023-01-29T18:51:16.173Z,1.92
2023-01-29T18:53:42.974Z,2.78
2023-01-29T18:56:11.037Z,2.25
2023-01-29T18:58:37.827Z,3.20
2023-01-29T19:01:09.307Z,2.42
2023-01-29T19:03:36.581Z,1.90
2023-01-29T19:06:04.650Z,2.60
2023-01-29T19:08:31.648Z,2.67
2023-01-29T19:11:02.078Z,3.20
2023-01-29T19:13:30.107Z,3.72
2023-01-29T19:15:56.897Z,1.92
2023-01-29T19:18:27.857Z,3.38
2023-01-29T19:20:54.868Z,4.75
2023-01-29T19:23:22.396Z,2.05
2023-01-29T19:25:49.638Z,2.50
2023-01-29T19:28:18.994Z,4.05
2023-01-29T19:30:50.856Z,2.42
2023-01-29T19:33:17.684Z,2.40
2023-01-29T19:35:46.103Z,2.60
2023-01-29T19:38:18.477Z,3.65
2023-01-29T19:40:45.301Z,6.03
2023-01-29T19:43:17.756Z,2.83
2023-01-29T19:45:50.151Z,4.63
2023-01-29T19:48:21.575Z,2.00
2023-01-29T19:51:00.234Z,3.45
2023-01-29T19:53:30.203Z,4.28
2023-01-29T19:56:20.098Z,5.03
2023-01-29T19:58:47.284Z,2.63
2023-01-29T20:01:20.695Z,4.30
2023-01-29T20:03:48.419Z,3.60
2023-01-29T20:06:23.997Z,6.68
2023-01-29T20:08:50.915Z,5.28
2023-01-29T20:11:23.115Z,3.50
2023-01-29T20:13:50.566Z,5.65
2023-01-29T20:16:17.865Z,4.72
2023-01-29T20:18:44.626Z,2.40
2023-01-29T20:21:13.042Z,2.60
2023-01-29T20:23:42.673Z,6.93
2023-01-29T20:26:13.044Z,5.55
2023-01-29T20:28:39.960Z,4.82
2023-01-29T20:31:06.851Z,2.85
2023-01-29T20:33:34.699Z,2.60
2023-01-29T20:36:04.341Z,5.50
2023-01-29T20:38:31.802Z,7.75
2023-01-29T20:41:05.504Z,3.38
2023-01-29T20:43:32.301Z,2.53
2023-01-29T20:45:59.263Z,3.90
2023-01-29T20:48:26.150Z,4.28
2023-01-29T20:50:53.475Z,3.15
2023-01-29T20:53:22.191Z,2.38
2023-01-29T20:55:51.605Z,3.50
2023-01-29T20:58:18.551Z,3.15
2023-01-29T21:00:45.900Z,3.25
2023-01-29T21:03:12.734Z,3.53
2023-01-29T21:05:39.487Z,3.13
2023-01-29T21:08:07.898Z,2.83
2023-01-29T21:10:34.623Z,3.72
2023-01-29T21:13:01.386Z,5.82
2023-01-29T21:15:28.632Z,4.57
2023-01-29T21:17:55.619Z,2.65
2023-01-29T21:20:22.448Z,5.47
2023-01-29T21:22:49.305Z,2.30
2023-01-29T21:25:20.278Z,4.07
2023-01-29T21:27:47.348Z,5.68
2023-01-29T21:30:14.659Z,3.97
2023-01-29T21:32:41.578Z,3.78
2023-01-29T21:35:09.266Z,3.42
2023-01-29T21:37:38.039Z,4.20
2023-01-29T21:40:05.644Z,6.28
2023-01-29T21:42:51.455Z,8.10
2023-01-29T21:45:19.572Z,3.92
2023-01-29T21:47:46.313Z,2.42
2023-01-29T21:50:12.977Z,4.93
2023-01-29T21:52:39.729Z,5.10
2023-01-29T21:55:06.698Z,3.88
2023-01-29T21:57:33.431Z,3.50
2023-01-29T22:00:00.243Z,8.80
2023-01-29T22:02:30.794Z,4.75
2023-01-29T22:05:16.589Z,3.60
2023-01-29T22:07:44.709Z,6.38
2023-01-29T22:10:13.443Z,5.47
2023-01-29T22:12:40.332Z,4.13
2023-01-29T22:15:07.979Z,6.35
2023-01-29T22:17:35.349Z,7.15
2023-01-29T22:20:02.313Z,7.47
2023-01-29T22:22:29.074Z,6.63
2023-01-29T22:24:57.649Z,4.28
2023-01-29T22:27:24.535Z,3.83
2023-01-29T22:29:51.250Z,3.70
2023-01-29T22:32:18.033Z,8.65
2023-01-29T22:34:44.825Z,6.97
2023-01-29T22:37:11.584Z,7.28
2023-01-29T22:39:39.417Z,5.32
2023-01-29T22:42:06.149Z,5.18
2023-01-29T22:44:32.947Z,6.13
2023-01-29T22:47:00.150Z,4.07
2023-01-29T22:49:29.446Z,6.57
2023-01-29T22:52:11.719Z,4.18
2023-01-29T22:54:39.646Z,6.35
2023-01-29T22:57:06.704Z,4.28
2023-01-29T22:59:33.598Z,6.75
2023-01-29T23:02:00.382Z,4.28
2023-01-29T23:04:27.262Z,4.10
2023-01-29T23:06:54.185Z,4.15
2023-01-29T23:09:20.921Z,4.93
2023-01-29T23:11:47.697Z,4.28
2023-01-29T23:14:14.554Z,4.53
2023-01-29T23:16:41.405Z,5.45
2023-01-29T23:19:08.456Z,6.88
2023-01-29T23:21:35.546Z,7.70
2023-01-29T23:24:04.395Z,4.38
2023-01-29T23:26:49.815Z,5.90
2023-01-29T23:29:16.509Z,5.65
2023-01-29T23:31:43.307Z,8.73
2023-01-29T23:34:10.103Z,3.85
2023-01-29T23:36:36.812Z,8.63
2023-01-29T23:39:03.881Z,6.82
2023-01-29T23:41:30.627Z,6.68
2023-01-29T23:43:57.299Z,12.43
2023-01-29T23:46:24.015Z,6.13
2023-01-29T23:48:50.854Z,5.10
2023-01-29T23:51:17.695Z,5.75
2023-01-29T23:53:44.500Z,5.82
2023-01-29T23:56:11.795Z,5.97
2023-01-29T23:58:38.736Z,6.20
